createdAt,value
2018-08-31T00:03:03.211Z,13.01
2018-08-31T00:07:03.964Z,12.5
2018-08-31T00:09:04.670Z,12.15
2018-08-31T00:13:05.442Z,12.17
2018-08-31T00:19:06.201Z,13.26
2018-08-31T00:23:06.892Z,13.44
2018-08-31T00:29:07.615Z,13
2018-08-31T00:33:08.311Z,12.87
2018-08-31T00:35:08.950Z,12.93
2018-08-31T00:39:09.686Z,13.62
2018-08-31T00:45:11.026Z,13.93
2018-08-31T00:49:11.710Z,13.93
2018-08-31T00:55:12.434Z,14.18
2018-08-31T00:59:13.191Z,13.99
2018-08-31T01:01:13.918Z,15.29
2018-08-31T01:05:14.625Z,13.96
2018-08-31T01:11:15.408Z,14.31
2018-08-31T01:15:16.400Z,14.85
2018-08-31T01:21:17.544Z,14.97
2018-08-31T01:25:18.242Z,15.35
2018-08-31T01:27:18.918Z,14.45
2018-08-31T01:31:19.699Z,13.2
2018-08-31T01:37:20.449Z,15.2
2018-08-31T01:41:21.105Z,13.21
2018-08-31T01:47:21.969Z,13.04
2018-08-31T01:51:22.688Z,12.08
2018-08-31T01:53:23.393Z,13.66
2018-08-31T01:57:24.158Z,13.02
2018-08-31T02:03:24.947Z,12.9
2018-08-31T02:07:25.616Z,12.2
2018-08-31T02:13:26.421Z,13.97
2018-08-31T02:17:27.059Z,12.65
2018-08-31T02:19:27.886Z,12.87
2018-08-31T02:23:28.670Z,12.68
2018-08-31T02:29:29.401Z,13.97
2018-08-31T02:33:30.132Z,13.46
2018-08-31T02:39:30.840Z,14.14
2018-08-31T02:43:31.552Z,13.15
2018-08-31T02:45:32.254Z,13.21
2018-08-31T02:49:32.909Z,13.01
2018-08-31T02:55:33.718Z,13.75
2018-08-31T02:59:34.411Z,13.59
2018-08-31T03:05:35.134Z,12.92
2018-08-31T03:11:35.884Z,13.69
2018-08-31T03:15:36.603Z,12.87
2018-08-31T03:21:37.302Z,13.31
2018-08-31T03:25:38.136Z,12.78
2018-08-31T03:31:38.888Z,13.16
2018-08-31T03:37:39.614Z,13.75
2018-08-31T03:41:41.071Z,12.24
2018-08-31T03:47:41.909Z,13.19
2018-08-31T03:51:42.633Z,12.82
2018-08-31T03:57:43.336Z,13.66
2018-08-31T04:03:44.163Z,14.06
2018-08-31T04:07:44.861Z,13.88
2018-08-31T04:13:45.655Z,15.16
2018-08-31T04:17:46.508Z,14.48
2018-08-31T04:23:47.209Z,14.98
2018-08-31T04:29:47.941Z,15.93
2018-08-31T04:33:48.657Z,14.85
2018-08-31T04:39:49.352Z,16.16
2018-08-31T04:43:50.136Z,14.75
2018-08-31T04:49:50.936Z,16.06
2018-08-31T04:55:51.597Z,16.86
2018-08-31T04:59:52.439Z,16.22
2018-08-31T05:05:53.177Z,18.83
2018-08-31T05:09:53.880Z,17.2
2018-08-31T05:15:54.648Z,18.85
2018-08-31T05:21:55.321Z,19.23
2018-08-31T05:25:56.061Z,17.98
2018-08-31T05:31:56.831Z,18.67
2018-08-31T05:35:57.552Z,18.26
2018-08-31T05:37:58.285Z,19.16
2018-08-31T05:41:59.063Z,17.67
2018-08-31T05:47:59.766Z,17.29
2018-08-31T05:52:00.517Z,17.31
2018-08-31T05:58:01.236Z,15.31
2018-08-31T06:02:02.011Z,15.99
2018-08-31T06:04:02.595Z,16.54
2018-08-31T06:08:03.307Z,16.78
2018-08-31T06:14:04.030Z,16.41
2018-08-31T06:18:04.796Z,14.91
2018-08-31T06:24:05.460Z,18.34
2018-08-31T06:28:06.273Z,16.15
2018-08-31T06:30:07.462Z,17.84
2018-08-31T06:34:08.162Z,17.03
2018-08-31T06:40:08.866Z,18.11
2018-08-31T06:44:09.733Z,18.13
2018-08-31T06:50:10.491Z,17.75
2018-08-31T06:54:11.256Z,16.93
2018-08-31T06:56:12.452Z,17.01
2018-08-31T07:00:13.517Z,16.95
2018-08-31T07:06:14.201Z,17.74
2018-08-31T07:10:14.947Z,17.07
2018-08-31T07:16:15.713Z,19.08
2018-08-31T07:20:16.386Z,16.76
2018-08-31T07:22:17.185Z,17.53
2018-08-31T07:26:17.955Z,16.63
2018-08-31T07:32:18.793Z,15.57
2018-08-31T07:36:19.500Z,15.23
2018-08-31T07:42:20.125Z,21.75
2018-08-31T07:46:20.896Z,21.04
2018-08-31T07:48:21.741Z,20.53
2018-08-31T07:52:22.482Z,21.17
2018-08-31T07:58:23.184Z,20.11
2018-08-31T08:02:23.869Z,21.24
2018-08-31T08:08:24.564Z,17.55
2018-08-31T08:14:25.311Z,16.91
2018-08-31T08:18:25.898Z,18
2018-08-31T08:24:26.584Z,17.75
2018-08-31T08:28:27.354Z,17.08
2018-08-31T08:34:28.105Z,16.4
2018-08-31T08:40:28.915Z,15.77
2018-08-31T08:44:29.550Z,16.46
2018-08-31T08:50:30.341Z,18.28
2018-08-31T08:54:31.754Z,17.95
2018-08-31T09:00:33.220Z,17.67
2018-08-31T09:06:35.060Z,18.28
2018-08-31T09:10:36.503Z,19.99
2018-08-31T09:16:37.300Z,16.94
2018-08-31T09:20:38.397Z,17.71
2018-08-31T09:26:39.668Z,15.79
2018-08-31T09:32:40.418Z,14.46
2018-08-31T09:36:41.382Z,12.79
2018-08-31T09:42:42.197Z,14.5
2018-08-31T09:46:43.023Z,13.95
2018-08-31T09:52:44.116Z,14.84
2018-08-31T09:58:44.862Z,14.42
2018-08-31T10:02:45.696Z,14.11
2018-08-31T10:08:46.444Z,14.84
2018-08-31T10:12:47.149Z,13.86
2018-08-31T10:18:48.052Z,13.38
2018-08-31T10:24:49.300Z,14.86
2018-08-31T10:28:50.035Z,14.76
2018-08-31T10:34:50.834Z,14.87
2018-08-31T10:38:52.104Z,15.33
2018-08-31T10:44:53.292Z,13.29
2018-08-31T10:50:54.814Z,14.02
2018-08-31T10:54:56.390Z,13.67
2018-08-31T11:00:58.161Z,15.14
2018-08-31T11:04:58.856Z,13.79
2018-08-31T11:10:59.607Z,14.47
2018-08-31T11:17:01.204Z,15.17
2018-08-31T11:21:02.675Z,15.81
2018-08-31T11:27:04.406Z,15.03
2018-08-31T11:31:06.093Z,13.89
2018-08-31T11:37:07.714Z,15.18
2018-08-31T11:43:09.416Z,15.86
2018-08-31T11:47:11.001Z,15.98
2018-08-31T11:53:12.579Z,16.81
2018-08-31T11:57:14.508Z,16.52
2018-08-31T12:03:16.125Z,16.32
2018-08-31T12:09:22.507Z,16.29
2018-08-31T12:13:23.308Z,16.61
2018-08-31T12:19:24.087Z,16.75
2018-08-31T12:23:24.777Z,16.08
2018-08-31T12:29:26.495Z,15.43
2018-08-31T12:35:27.386Z,19.54
2018-08-31T12:39:28.990Z,22.66
2018-08-31T12:45:30.285Z,12.98
2018-08-31T12:49:31.273Z,10.99
2018-08-31T12:55:32.561Z,10.25
2018-08-31T13:01:33.374Z,11.43
2018-08-31T13:05:34.139Z,11.56
2018-08-31T13:11:35.141Z,12.32
2018-08-31T13:15:36.762Z,13.88
2018-08-31T13:21:37.527Z,14.31
2018-08-31T13:27:38.313Z,14.78
2018-08-31T13:31:39.053Z,15.32
2018-08-31T13:37:39.863Z,15.51
2018-08-31T13:41:40.590Z,15.86
2018-08-31T13:47:41.637Z,12.38
2018-08-31T13:53:42.450Z,10.7
2018-08-31T13:57:43.059Z,10.82
2018-08-31T14:03:44.505Z,11.22
2018-08-31T14:07:45.186Z,11.31
2018-08-31T14:09:45.978Z,11.13
2018-08-31T14:13:46.671Z,11.56
2018-08-31T14:19:47.463Z,11.72
2018-08-31T14:23:48.205Z,12.43
2018-08-31T14:29:49.040Z,11.58
2018-08-31T14:33:49.816Z,11.3
2018-08-31T14:35:50.661Z,11.49
2018-08-31T14:39:51.438Z,11.45
2018-08-31T14:45:52.191Z,12.23
2018-08-31T14:49:53.007Z,12.73
2018-08-31T14:55:53.663Z,13.35
2018-08-31T14:59:54.317Z,14.01
2018-08-31T15:01:55.123Z,13.64
2018-08-31T15:05:55.825Z,13.43
2018-08-31T15:11:56.557Z,16.37
2018-08-31T15:15:57.212Z,15.17
2018-08-31T15:21:57.946Z,14.95
2018-08-31T15:25:58.677Z,14.84
2018-08-31T15:27:59.447Z,15.09
2018-08-31T15:32:00.081Z,15.78
2018-08-31T15:38:00.875Z,13.97
2018-08-31T15:42:01.727Z,14.41
2018-08-31T15:48:02.382Z,14.12
2018-08-31T15:52:02.998Z,16.26
2018-08-31T15:54:03.706Z,14.6
2018-08-31T15:58:04.625Z,14.05
2018-08-31T16:04:05.321Z,16.2
2018-08-31T16:08:06.050Z,14.91
2018-08-31T16:14:06.871Z,15.24
2018-08-31T16:18:07.573Z,14.8
2018-08-31T16:20:08.287Z,17.48
2018-08-31T16:24:08.965Z,16.71
2018-08-31T16:30:10.045Z,18.68
2018-08-31T16:34:10.758Z,17.6
2018-08-31T16:40:11.481Z,20.41
2018-08-31T16:46:12.394Z,21.47
2018-08-31T16:50:13.072Z,21.31
2018-08-31T16:56:13.828Z,20.96
2018-08-31T17:00:14.973Z,20.68
2018-08-31T17:06:15.680Z,21.04
2018-08-31T17:12:16.368Z,20.68
2018-08-31T17:16:17.089Z,19.38
2018-08-31T17:22:17.971Z,20.35
2018-08-31T17:26:18.705Z,19.2
2018-08-31T17:32:19.408Z,20.05
2018-08-31T17:38:20.133Z,20.32
2018-08-31T17:42:20.787Z,18.7
2018-08-31T17:48:21.590Z,19.59
2018-08-31T17:52:27.426Z,18.12
2018-08-31T17:58:28.363Z,28.64
2018-08-31T18:04:29.003Z,20.73
2018-08-31T18:08:30.383Z,21.87
2018-08-31T18:14:31.244Z,23.62
2018-08-31T18:18:31.953Z,27.26
2018-08-31T18:24:32.669Z,24.61
2018-08-31T18:30:33.452Z,21.06
2018-08-31T18:34:34.370Z,23.14
2018-08-31T18:40:35.246Z,18
2018-08-31T18:44:35.847Z,20.03
2018-08-31T18:50:36.584Z,20.28
2018-08-31T18:56:37.435Z,20.52
2018-08-31T19:00:38.213Z,25.65
2018-08-31T19:06:39.029Z,18.69
2018-08-31T19:10:39.966Z,20.55
2018-08-31T19:16:40.719Z,19.44
2018-08-31T19:22:41.482Z,19.52
2018-08-31T19:26:42.374Z,22.14
2018-08-31T19:32:43.211Z,20.5
2018-08-31T19:36:44.015Z,23.77
2018-08-31T19:38:44.799Z,22.45
2018-08-31T19:42:45.450Z,21.34
2018-08-31T19:48:46.328Z,25.61
2018-08-31T19:52:46.952Z,22.79
2018-08-31T19:58:47.714Z,21.78
2018-08-31T20:02:48.465Z,19.31
2018-08-31T20:04:49.117Z,20.52
2018-08-31T20:08:49.923Z,22.75
2018-08-31T20:14:50.679Z,24.05
2018-08-31T20:18:51.347Z,22.18
2018-08-31T20:24:52.177Z,23.03
2018-08-31T20:28:53.013Z,24.7
2018-08-31T20:30:53.750Z,19.35
2018-08-31T20:34:54.451Z,21.49
2018-08-31T20:40:55.186Z,21.36
2018-08-31T20:51:06.536Z,22.32
2018-08-31T20:51:06.681Z,19.24
2018-08-31T20:55:07.451Z,20.93
2018-08-31T21:01:08.216Z,19.46
2018-08-31T21:07:09.021Z,20.82
2018-08-31T21:11:09.803Z,18.45
2018-08-31T21:17:10.726Z,21.31
2018-08-31T21:21:11.377Z,18.73
2018-08-31T21:27:12.082Z,20.66
2018-08-31T21:33:12.881Z,19.3
2018-08-31T21:37:13.780Z,21.1
2018-08-31T21:43:14.497Z,20.11
2018-08-31T21:47:15.163Z,18.97
2018-08-31T21:49:15.919Z,19.04
2018-08-31T21:53:16.672Z,18.83
2018-08-31T21:59:17.556Z,21.39
2018-08-31T22:03:18.260Z,20.12
2018-08-31T22:09:19.155Z,20.03
2018-08-31T22:13:19.947Z,21.15
2018-08-31T22:15:20.873Z,20.8
2018-08-31T22:19:21.595Z,20.62
2018-08-31T22:25:22.280Z,19.24
2018-08-31T22:29:23.056Z,20.59
2018-08-31T22:35:24.185Z,18.72
2018-08-31T22:39:25.195Z,18.51
2018-08-31T22:41:25.917Z,19.62
2018-08-31T22:45:27.407Z,18.46
2018-08-31T22:51:28.145Z,19.41
2018-08-31T22:55:28.913Z,19.21
2018-08-31T23:01:29.773Z,21.87
2018-08-31T23:05:30.492Z,21.11
2018-08-31T23:07:31.261Z,20.16
2018-08-31T23:11:31.955Z,20.46
2018-08-31T23:17:32.692Z,19.27
2018-08-31T23:21:33.422Z,19.55
2018-08-31T23:27:34.116Z,23.69
2018-08-31T23:31:34.807Z,20.93
2018-08-31T23:33:35.597Z,19.57
2018-08-31T23:37:36.343Z,19.71
2018-08-31T23:43:36.997Z,20.96
2018-08-31T23:47:37.653Z,21.1
2018-08-31T23:53:38.436Z,21.84
2018-08-31T23:57:39.112Z,23.37
2018-08-31T23:59:39.812Z,20.41
